Time,TemperatureF,DewpointF,PressureIn,WindDirection,WindDirectionDegrees,WindSpeedMPH,WindSpeedGustMPH,Humidity,HourlyPrecipIn,Conditions,Clouds,dailyrainin,SolarRadiationWatts/m^2,SoftwareType,DateUTC
2013-03-04 00:00:00,19.0,14.0,-100.00,SE,135,3.0,-999.0,79,-99.99,,,-99.99,0.000000,,2013-03-04 05:00:00,
2013-03-04 00:43:00,19.0,14.0,-100.00,SE,135,3.0,-999.0,79,-99.99,,,-99.99,0.000000,,2013-03-04 05:43:00,
2013-03-04 00:52:00,19.0,14.0,-100.00,SE,135,3.0,-999.0,79,-99.99,,,-99.99,0.000000,,2013-03-04 05:52:00,
2013-03-04 01:00:00,20.0,14.0,-100.00,WSW,247,1.0,-999.0,78,-99.99,,,-99.99,0.000000,,2013-03-04 06:00:00,
2013-03-04 01:32:00,20.0,14.0,-100.00,WSW,247,1.0,-999.0,78,-99.99,,,-99.99,0.000000,,2013-03-04 06:32:00,
2013-03-04 01:42:00,20.0,14.0,-100.00,WSW,247,1.0,-999.0,78,-99.99,,,-99.99,0.000000,,2013-03-04 06:42:00,
2013-03-04 01:52:00,20.0,14.0,-100.00,WSW,247,1.0,-999.0,78,-99.99,,,-99.99,0.000000,,2013-03-04 06:52:00,
2013-03-04 02:00:00,20.0,14.0,-100.00,WSW,247,1.0,-999.0,76,-99.99,,,-99.99,0.000000,,2013-03-04 07:00:00,
2013-03-04 02:42:00,20.0,14.0,-100.00,WSW,247,1.0,-999.0,76,-99.99,,,-99.99,0.000000,,2013-03-04 07:42:00,
2013-03-04 02:52:00,20.0,14.0,-100.00,WSW,247,1.0,-999.0,76,-99.99,,,-99.99,0.000000,,2013-03-04 07:52:00,
2013-03-04 03:00:00,19.0,14.0,-100.00,West,270,1.0,-999.0,79,-99.99,,,-99.99,0.000000,,2013-03-04 08:00:00,
2013-03-04 03:42:00,19.0,14.0,-100.00,West,270,1.0,-999.0,79,-99.99,,,-99.99,0.000000,,2013-03-04 08:42:00,
2013-03-04 03:52:00,19.0,14.0,-100.00,West,270,1.0,-999.0,79,-99.99,,,-99.99,0.000000,,2013-03-04 08:52:00,
2013-03-04 04:00:00,18.0,14.0,-100.00,NE,45,1.0,-999.0,83,-99.99,,,-99.99,0.000000,,2013-03-04 09:00:00,
2013-03-04 04:42:00,18.0,14.0,-100.00,NE,45,1.0,-999.0,83,-99.99,,,-99.99,0.000000,,2013-03-04 09:42:00,
2013-03-04 04:52:00,18.0,14.0,-100.00,NE,45,1.0,-999.0,83,-99.99,,,-99.99,0.000000,,2013-03-04 09:52:00,
2013-03-04 05:00:00,15.0,12.0,-100.00,NE,45,0.0,-999.0,87,-99.99,,,-99.99,0.000000,,2013-03-04 10:00:00,
2013-03-04 05:42:00,15.0,12.0,-100.00,NE,45,0.0,-999.0,87,-99.99,,,-99.99,0.000000,,2013-03-04 10:42:00,
2013-03-04 05:52:00,15.0,12.0,-100.00,NE,45,0.0,-999.0,87,-99.99,,,-99.99,0.000000,,2013-03-04 10:52:00,
2013-03-04 06:00:00,14.0,11.0,-100.00,NE,45,0.0,-999.0,90,-99.99,,,-99.99,0.000000,,2013-03-04 11:00:00,
2013-03-04 06:42:00,14.0,11.0,-100.00,NE,45,0.0,-999.0,90,-99.99,,,-99.99,0.000000,,2013-03-04 11:42:00,
2013-03-04 06:52:00,14.0,11.0,-100.00,NE,45,0.0,-999.0,90,-99.99,,,-99.99,0.000000,,2013-03-04 11:52:00,
2013-03-04 07:00:00,12.0,9.0,-100.00,NE,45,3.0,-999.0,86,-99.99,,,-99.99,0.000000,,2013-03-04 12:00:00,
2013-03-04 07:43:00,12.0,9.0,-100.00,NE,45,3.0,-999.0,86,-99.99,,,-99.99,0.000000,,2013-03-04 12:43:00,
2013-03-04 08:00:00,12.0,9.0,-100.00,ENE,67,4.0,-999.0,89,-99.99,,,-99.99,38.279999,,2013-03-04 13:00:00,
2013-03-04 08:42:00,12.0,9.0,-100.00,ENE,67,4.0,-999.0,89,-99.99,,,-99.99,38.279999,,2013-03-04 13:42:00,
2013-03-04 08:52:00,12.0,9.0,-100.00,ENE,67,4.0,-999.0,89,-99.99,,,-99.99,38.279999,,2013-03-04 13:52:00,
2013-03-04 09:00:00,15.0,9.0,-100.00,ENE,67,3.0,-999.0,77,-99.99,,,-99.99,193.720001,,2013-03-04 14:00:00,
2013-03-04 09:42:00,15.0,9.0,-100.00,ENE,67,3.0,-999.0,77,-99.99,,,-99.99,193.720001,,2013-03-04 14:42:00,
2013-03-04 09:52:00,15.0,9.0,-100.00,ENE,67,3.0,-999.0,77,-99.99,,,-99.99,193.720001,,2013-03-04 14:52:00,
2013-03-04 10:00:00,19.0,10.0,-100.00,ENE,67,1.0,-999.0,68,-99.99,,,-99.99,337.559998,,2013-03-04 15:00:00,
2013-03-04 10:42:00,19.0,10.0,-100.00,ENE,67,1.0,-999.0,68,-99.99,,,-99.99,337.559998,,2013-03-04 15:42:00,
2013-03-04 10:52:00,19.0,10.0,-100.00,ENE,67,1.0,-999.0,68,-99.99,,,-99.99,337.559998,,2013-03-04 15:52:00,
2013-03-04 11:00:00,25.0,13.0,-100.00,ENE,67,2.0,-999.0,58,-99.99,,,-99.99,488.359985,,2013-03-04 16:00:00,
2013-03-04 11:42:00,25.0,13.0,-100.00,ENE,67,2.0,-999.0,58,-99.99,,,-99.99,488.359985,,2013-03-04 16:42:00,
2013-03-04 11:52:00,25.0,13.0,-100.00,ENE,67,2.0,-999.0,58,-99.99,,,-99.99,488.359985,,2013-03-04 16:52:00,
2013-03-04 12:00:00,27.0,13.0,-100.00,ENE,67,1.0,-999.0,53,-99.99,,,-99.99,577.679993,,2013-03-04 17:00:00,
2013-03-04 12:42:00,27.0,13.0,-100.00,ENE,67,1.0,-999.0,53,-99.99,,,-99.99,577.679993,,2013-03-04 17:42:00,
2013-03-04 12:52:00,27.0,13.0,-100.00,ENE,67,1.0,-999.0,53,-99.99,,,-99.99,577.679993,,2013-03-04 17:52:00,
2013-03-04 13:00:00,29.0,13.0,-100.00,ESE,112,1.0,-999.0,49,-99.99,,,-99.99,626.400024,,2013-03-04 18:00:00,
2013-03-04 13:42:00,29.0,13.0,-100.00,ESE,112,1.0,-999.0,49,-99.99,,,-99.99,626.400024,,2013-03-04 18:42:00,
2013-03-04 13:52:00,29.0,13.0,-100.00,ESE,112,1.0,-999.0,49,-99.99,,,-99.99,626.400024,,2013-03-04 18:52:00,
2013-03-04 14:00:00,30.0,13.0,-100.00,ENE,67,1.0,-999.0,48,-99.99,,,-99.99,617.119995,,2013-03-04 19:00:00,
2013-03-04 14:42:00,30.0,13.0,-100.00,ENE,67,1.0,-999.0,48,-99.99,,,-99.99,617.119995,,2013-03-04 19:42:00,
2013-03-04 14:52:00,30.0,13.0,-100.00,ENE,67,1.0,-999.0,48,-99.99,,,-99.99,617.119995,,2013-03-04 19:52:00,
2013-03-04 15:00:00,31.0,12.0,-100.00,ESE,112,1.0,-999.0,43,-99.99,,,-99.99,556.799988,,2013-03-04 20:00:00,
2013-03-04 15:33:00,31.0,12.0,-100.00,ESE,112,1.0,-999.0,43,-99.99,,,-99.99,556.799988,,2013-03-04 20:33:00,
2013-03-04 15:42:00,31.0,12.0,-100.00,ESE,112,1.0,-999.0,43,-99.99,,,-99.99,556.799988,,2013-03-04 20:42:00,
2013-03-04 15:53:00,31.0,12.0,-100.00,ESE,112,1.0,-999.0,43,-99.99,,,-99.99,556.799988,,2013-03-04 20:53:00,
2013-03-04 16:00:00,33.0,11.0,-100.00,SW,225,2.0,-999.0,40,-99.99,,,-99.99,430.359985,,2013-03-04 21:00:00,
2013-03-04 16:43:00,33.0,11.0,-100.00,SW,225,2.0,-999.0,40,-99.99,,,-99.99,430.359985,,2013-03-04 21:43:00,
2013-03-04 16:53:00,33.0,11.0,-100.00,SW,225,2.0,-999.0,40,-99.99,,,-99.99,430.359985,,2013-03-04 21:53:00,
2013-03-04 17:00:00,31.0,8.0,-100.00,SSW,202,1.0,-999.0,37,-99.99,,,-99.99,300.440002,,2013-03-04 22:00:00,
2013-03-04 17:43:00,31.0,8.0,-100.00,SSW,202,1.0,-999.0,37,-99.99,,,-99.99,300.440002,,2013-03-04 22:43:00,
2013-03-04 17:52:00,31.0,8.0,-100.00,SSW,202,1.0,-999.0,37,-99.99,,,-99.99,300.440002,,2013-03-04 22:52:00,
2013-03-04 18:00:00,28.0,4.0,-100.00,SSE,157,1.0,-999.0,35,-99.99,,,-99.99,116.000000,,2013-03-04 23:00:00,
2013-03-04 18:42:00,28.0,4.0,-100.00,SSE,157,1.0,-999.0,35,-99.99,,,-99.99,116.000000,,2013-03-04 23:42:00,
2013-03-04 18:52:00,28.0,4.0,-100.00,SSE,157,1.0,-999.0,35,-99.99,,,-99.99,116.000000,,2013-03-04 23:52:00,
2013-03-04 19:00:00,24.0,2.0,-100.00,NNE,22,1.0,-999.0,37,-99.99,,,-99.99,8.120000,,2013-03-05 00:00:00,
2013-03-04 19:42:00,24.0,2.0,-100.00,NNE,22,1.0,-999.0,37,-99.99,,,-99.99,8.120000,,2013-03-05 00:42:00,
2013-03-04 19:52:00,24.0,2.0,-100.00,NNE,22,1.0,-999.0,37,-99.99,,,-99.99,8.120000,,2013-03-05 00:52:00,
2013-03-04 21:00:00,18.0,6.0,-100.00,NE,45,0.0,-999.0,59,-99.99,,,-99.99,0.000000,,2013-03-05 02:00:00,
2013-03-04 21:42:00,18.0,6.0,-100.00,NE,45,0.0,-999.0,59,-99.99,,,-99.99,0.000000,,2013-03-05 02:42:00,
2013-03-04 21:53:00,18.0,6.0,-100.00,NE,45,0.0,-999.0,59,-99.99,,,-99.99,0.000000,,2013-03-05 02:53:00,
2013-03-04 22:00:00,17.0,9.0,-100.00,NE,45,0.0,-999.0,68,-99.99,,,-99.99,0.000000,,2013-03-05 03:00:00,
2013-03-04 22:42:00,17.0,9.0,-100.00,NE,45,0.0,-999.0,68,-99.99,,,-99.99,0.000000,,2013-03-05 03:42:00,
2013-03-04 22:52:00,17.0,9.0,-100.00,NE,45,0.0,-999.0,68,-99.99,,,-99.99,0.000000,,2013-03-05 03:52:00,
2013-03-04 23:00:00,15.0,9.0,-100.00,NE,45,0.0,-999.0,77,-99.99,,,-99.99,0.000000,,2013-03-05 04:00:00,
2013-03-04 23:42:00,15.0,9.0,-100.00,NE,45,0.0,-999.0,77,-99.99,,,-99.99,0.000000,,2013-03-05 04:42:00,
2013-03-04 23:52:00,15.0,9.0,-100.00,NE,45,0.0,-999.0,77,-99.99,,,-99.99,0.000000,,2013-03-05 04:52:00,